sensor_id;sensor_type;location;lat;lon;timestamp;P1;durP1;ratioP1;P2;durP2;ratioP2
62990;SDS011;49084;48.204;16.202;2023-05-14T00:00:35;30.40;;;20.67;;
62990;SDS011;49084;48.204;16.202;2023-05-14T00:03:01;32.38;;;19.60;;
62990;SDS011;49084;48.204;16.202;2023-05-14T00:05:26;26.65;;;19.10;;
62990;SDS011;49084;48.204;16.202;2023-05-14T00:07:52;30.23;;;19.60;;
62990;SDS011;49084;48.204;16.202;2023-05-14T00:10:17;26.58;;;20.23;;
62990;SDS011;49084;48.204;16.202;2023-05-14T00:12:45;30.83;;;20.05;;
62990;SDS011;49084;48.204;16.202;2023-05-14T00:15:11;28.83;;;19.33;;
62990;SDS011;49084;48.204;16.202;2023-05-14T00:17:37;29.70;;;20.27;;
62990;SDS011;49084;48.204;16.202;2023-05-14T00:20:03;31.58;;;19.83;;
62990;SDS011;49084;48.204;16.202;2023-05-14T00:22:33;25.90;;;19.08;;
62990;SDS011;49084;48.204;16.202;2023-05-14T00:24:58;26.95;;;20.25;;
62990;SDS011;49084;48.204;16.202;2023-05-14T00:27:24;28.75;;;19.52;;
62990;SDS011;49084;48.204;16.202;2023-05-14T00:29:50;29.25;;;19.67;;
62990;SDS011;49084;48.204;16.202;2023-05-14T00:32:15;28.13;;;19.75;;
62990;SDS011;49084;48.204;16.202;2023-05-14T00:34:41;26.70;;;19.42;;
62990;SDS011;49084;48.204;16.202;2023-05-14T00:37:07;27.75;;;19.55;;
62990;SDS011;49084;48.204;16.202;2023-05-14T00:39:33;24.05;;;16.80;;
62990;SDS011;49084;48.204;16.202;2023-05-14T00:41:58;24.08;;;18.10;;
62990;SDS011;49084;48.204;16.202;2023-05-14T00:44:24;24.05;;;16.10;;
62990;SDS011;49084;48.204;16.202;2023-05-14T00:46:49;24.98;;;17.35;;
62990;SDS011;49084;48.204;16.202;2023-05-14T00:49:16;22.60;;;16.33;;
62990;SDS011;49084;48.204;16.202;2023-05-14T00:51:43;25.38;;;16.23;;
62990;SDS011;49084;48.204;16.202;2023-05-14T00:54:13;21.40;;;16.70;;
62990;SDS011;49084;48.204;16.202;2023-05-14T00:56:41;23.87;;;15.03;;
62990;SDS011;49084;48.204;16.202;2023-05-14T00:59:08;24.38;;;16.65;;
62990;SDS011;49084;48.204;16.202;2023-05-14T01:01:34;22.58;;;15.90;;
62990;SDS011;49084;48.204;16.202;2023-05-14T01:04:01;22.02;;;15.70;;
62990;SDS011;49084;48.204;16.202;2023-05-14T01:06:35;25.85;;;15.60;;
62990;SDS011;49084;48.204;16.202;2023-05-14T01:14:26;21.48;;;14.77;;
62990;SDS011;49084;48.204;16.202;2023-05-14T01:17:12;18.40;;;14.50;;
62990;SDS011;49084;48.204;16.202;2023-05-14T01:19:40;21.45;;;13.60;;
62990;SDS011;49084;48.204;16.202;2023-05-14T01:22:07;19.63;;;13.50;;
62990;SDS011;49084;48.204;16.202;2023-05-14T01:24:34;16.10;;;11.95;;
62990;SDS011;49084;48.204;16.202;2023-05-14T01:27:21;18.30;;;13.30;;
62990;SDS011;49084;48.204;16.202;2023-05-14T01:30:16;18.52;;;13.02;;
62990;SDS011;49084;48.204;16.202;2023-05-14T01:33:04;20.20;;;12.85;;
62990;SDS011;49084;48.204;16.202;2023-05-14T01:35:33;23.55;;;12.40;;
62990;SDS011;49084;48.204;16.202;2023-05-14T01:38:00;17.25;;;12.35;;
62990;SDS011;49084;48.204;16.202;2023-05-14T01:40:30;16.95;;;11.38;;
62990;SDS011;49084;48.204;16.202;2023-05-14T01:42:56;19.27;;;12.45;;
62990;SDS011;49084;48.204;16.202;2023-05-14T01:45:23;18.30;;;13.07;;
62990;SDS011;49084;48.204;16.202;2023-05-14T01:47:49;17.02;;;12.32;;
62990;SDS011;49084;48.204;16.202;2023-05-14T01:50:15;16.10;;;11.25;;
62990;SDS011;49084;48.204;16.202;2023-05-14T01:52:41;16.10;;;12.40;;
62990;SDS011;49084;48.204;16.202;2023-05-14T01:55:07;18.02;;;12.70;;
62990;SDS011;49084;48.204;16.202;2023-05-14T01:57:33;16.02;;;11.85;;
62990;SDS011;49084;48.204;16.202;2023-05-14T01:59:58;17.52;;;12.13;;
62990;SDS011;49084;48.204;16.202;2023-05-14T02:02:24;18.95;;;12.13;;
62990;SDS011;49084;48.204;16.202;2023-05-14T02:04:50;16.52;;;12.20;;
62990;SDS011;49084;48.204;16.202;2023-05-14T02:07:15;15.50;;;12.27;;
62990;SDS011;49084;48.204;16.202;2023-05-14T02:09:41;18.17;;;12.27;;
62990;SDS011;49084;48.204;16.202;2023-05-14T02:12:07;19.75;;;12.15;;
62990;SDS011;49084;48.204;16.202;2023-05-14T02:14:33;19.63;;;12.10;;
62990;SDS011;49084;48.204;16.202;2023-05-14T02:16:59;16.67;;;13.15;;
62990;SDS011;49084;48.204;16.202;2023-05-14T02:19:24;17.13;;;11.90;;
62990;SDS011;49084;48.204;16.202;2023-05-14T02:21:50;13.95;;;11.50;;
62990;SDS011;49084;48.204;16.202;2023-05-14T02:24:16;18.08;;;12.35;;
62990;SDS011;49084;48.204;16.202;2023-05-14T02:26:41;16.38;;;12.98;;
62990;SDS011;49084;48.204;16.202;2023-05-14T02:29:07;15.57;;;11.73;;
62990;SDS011;49084;48.204;16.202;2023-05-14T02:31:33;16.90;;;13.02;;
62990;SDS011;49084;48.204;16.202;2023-05-14T02:34:02;14.27;;;11.45;;
62990;SDS011;49084;48.204;16.202;2023-05-14T02:36:28;15.55;;;11.65;;
62990;SDS011;49084;48.204;16.202;2023-05-14T02:38:54;14.50;;;11.15;;
62990;SDS011;49084;48.204;16.202;2023-05-14T02:41:22;13.45;;;11.13;;
62990;SDS011;49084;48.204;16.202;2023-05-14T02:43:47;14.98;;;11.82;;
62990;SDS011;49084;48.204;16.202;2023-05-14T02:46:13;13.93;;;11.73;;
62990;SDS011;49084;48.204;16.202;2023-05-14T02:48:39;18.13;;;11.57;;
62990;SDS011;49084;48.204;16.202;2023-05-14T02:51:05;14.45;;;11.55;;
62990;SDS011;49084;48.204;16.202;2023-05-14T02:53:31;16.70;;;12.05;;
62990;SDS011;49084;48.204;16.202;2023-05-14T02:55:57;14.32;;;11.65;;
62990;SDS011;49084;48.204;16.202;2023-05-14T02:58:22;14.13;;;11.48;;
62990;SDS011;49084;48.204;16.202;2023-05-14T03:00:48;13.40;;;10.73;;
62990;SDS011;49084;48.204;16.202;2023-05-14T03:03:13;15.27;;;10.77;;
62990;SDS011;49084;48.204;16.202;2023-05-14T03:05:39;16.20;;;10.77;;
62990;SDS011;49084;48.204;16.202;2023-05-14T03:08:05;13.48;;;10.65;;
62990;SDS011;49084;48.204;16.202;2023-05-14T03:10:30;15.63;;;11.32;;
62990;SDS011;49084;48.204;16.202;2023-05-14T03:12:56;19.85;;;10.80;;
62990;SDS011;49084;48.204;16.202;2023-05-14T03:15:22;13.25;;;10.43;;
62990;SDS011;49084;48.204;16.202;2023-05-14T03:17:48;14.18;;;10.60;;
62990;SDS011;49084;48.204;16.202;2023-05-14T03:20:13;13.23;;;10.93;;
62990;SDS011;49084;48.204;16.202;2023-05-14T03:22:39;12.77;;;10.70;;
62990;SDS011;49084;48.204;16.202;2023-05-14T03:25:05;12.00;;;9.98;;
62990;SDS011;49084;48.204;16.202;2023-05-14T03:27:30;12.32;;;10.15;;
62990;SDS011;49084;48.204;16.202;2023-05-14T03:29:57;12.77;;;10.15;;
62990;SDS011;49084;48.204;16.202;2023-05-14T03:32:23;14.20;;;10.48;;
62990;SDS011;49084;48.204;16.202;2023-05-14T03:34:48;12.07;;;10.05;;
62990;SDS011;49084;48.204;16.202;2023-05-14T03:37:14;13.50;;;10.32;;
62990;SDS011;49084;48.204;16.202;2023-05-14T03:39:40;14.07;;;10.45;;
62990;SDS011;49084;48.204;16.202;2023-05-14T03:42:05;12.98;;;10.73;;
62990;SDS011;49084;48.204;16.202;2023-05-14T03:44:31;13.05;;;10.70;;
62990;SDS011;49084;48.204;16.202;2023-05-14T03:46:57;12.77;;;10.25;;
62990;SDS011;49084;48.204;16.202;2023-05-14T03:49:22;14.95;;;10.70;;
62990;SDS011;49084;48.204;16.202;2023-05-14T03:51:48;16.77;;;10.98;;
62990;SDS011;49084;48.204;16.202;2023-05-14T03:54:13;13.57;;;10.45;;
62990;SDS011;49084;48.204;16.202;2023-05-14T03:56:39;11.80;;;10.25;;
62990;SDS011;49084;48.204;16.202;2023-05-14T03:59:05;14.55;;;11.48;;
62990;SDS011;49084;48.204;16.202;2023-05-14T04:01:30;12.10;;;10.35;;
62990;SDS011;49084;48.204;16.202;2023-05-14T04:03:56;12.80;;;10.68;;
62990;SDS011;49084;48.204;16.202;2023-05-14T04:06:22;13.48;;;10.82;;
62990;SDS011;49084;48.204;16.202;2023-05-14T04:08:47;19.30;;;11.75;;
62990;SDS011;49084;48.204;16.202;2023-05-14T04:11:13;14.40;;;10.57;;
62990;SDS011;49084;48.204;16.202;2023-05-14T04:13:38;14.02;;;10.93;;
62990;SDS011;49084;48.204;16.202;2023-05-14T04:16:04;14.48;;;11.02;;
62990;SDS011;49084;48.204;16.202;2023-05-14T04:18:30;13.57;;;10.68;;
62990;SDS011;49084;48.204;16.202;2023-05-14T04:20:59;13.15;;;11.07;;
62990;SDS011;49084;48.204;16.202;2023-05-14T04:23:25;14.05;;;11.15;;
62990;SDS011;49084;48.204;16.202;2023-05-14T04:25:50;14.18;;;11.52;;
62990;SDS011;49084;48.204;16.202;2023-05-14T04:28:16;17.08;;;12.32;;
62990;SDS011;49084;48.204;16.202;2023-05-14T04:30:42;15.05;;;12.40;;
62990;SDS011;49084;48.204;16.202;2023-05-14T04:33:07;16.58;;;11.40;;
62990;SDS011;49084;48.204;16.202;2023-05-14T04:35:33;17.95;;;11.68;;
62990;SDS011;49084;48.204;16.202;2023-05-14T04:37:58;13.85;;;11.10;;
62990;SDS011;49084;48.204;16.202;2023-05-14T04:40:24;16.63;;;11.88;;
62990;SDS011;49084;48.204;16.202;2023-05-14T04:42:50;17.15;;;12.60;;
62990;SDS011;49084;48.204;16.202;2023-05-14T04:45:15;17.85;;;11.88;;
62990;SDS011;49084;48.204;16.202;2023-05-14T04:47:41;17.13;;;11.77;;
62990;SDS011;49084;48.204;16.202;2023-05-14T04:50:07;13.63;;;12.05;;
62990;SDS011;49084;48.204;16.202;2023-05-14T04:52:33;13.70;;;10.98;;
62990;SDS011;49084;48.204;16.202;2023-05-14T04:54:59;11.90;;;10.23;;
62990;SDS011;49084;48.204;16.202;2023-05-14T04:57:25;14.27;;;10.85;;
62990;SDS011;49084;48.204;16.202;2023-05-14T04:59:51;13.90;;;10.18;;
62990;SDS011;49084;48.204;16.202;2023-05-14T05:02:16;14.85;;;10.50;;
62990;SDS011;49084;48.204;16.202;2023-05-14T05:04:42;13.98;;;10.30;;
62990;SDS011;49084;48.204;16.202;2023-05-14T05:07:08;11.27;;;10.10;;
62990;SDS011;49084;48.204;16.202;2023-05-14T05:09:33;14.45;;;9.45;;
62990;SDS011;49084;48.204;16.202;2023-05-14T05:11:59;11.10;;;9.73;;
62990;SDS011;49084;48.204;16.202;2023-05-14T05:14:25;11.75;;;9.60;;
62990;SDS011;49084;48.204;16.202;2023-05-14T05:16:51;11.23;;;10.02;;
62990;SDS011;49084;48.204;16.202;2023-05-14T05:19:17;11.13;;;10.05;;
62990;SDS011;49084;48.204;16.202;2023-05-14T05:21:42;13.57;;;10.48;;
62990;SDS011;49084;48.204;16.202;2023-05-14T05:24:08;11.88;;;10.25;;
62990;SDS011;49084;48.204;16.202;2023-05-14T05:26:34;12.52;;;10.40;;
62990;SDS011;49084;48.204;16.202;2023-05-14T05:29:02;11.70;;;10.50;;
62990;SDS011;49084;48.204;16.202;2023-05-14T05:31:29;12.10;;;10.80;;
62990;SDS011;49084;48.204;16.202;2023-05-14T05:33:57;14.02;;;11.07;;
62990;SDS011;49084;48.204;16.202;2023-05-14T05:36:23;11.77;;;10.23;;
62990;SDS011;49084;48.204;16.202;2023-05-14T05:38:49;11.30;;;10.15;;
62990;SDS011;49084;48.204;16.202;2023-05-14T05:41:15;13.77;;;10.75;;
62990;SDS011;49084;48.204;16.202;2023-05-14T05:43:40;12.00;;;10.70;;
62990;SDS011;49084;48.204;16.202;2023-05-14T05:46:06;10.68;;;9.63;;
62990;SDS011;49084;48.204;16.202;2023-05-14T05:48:32;12.95;;;9.63;;
62990;SDS011;49084;48.204;16.202;2023-05-14T05:50:57;14.00;;;9.77;;
62990;SDS011;49084;48.204;16.202;2023-05-14T05:53:23;11.68;;;9.20;;
62990;SDS011;49084;48.204;16.202;2023-05-14T05:55:49;10.63;;;8.85;;
62990;SDS011;49084;48.204;16.202;2023-05-14T05:58:17;12.07;;;9.20;;
62990;SDS011;49084;48.204;16.202;2023-05-14T06:00:43;8.38;;;7.47;;
62990;SDS011;49084;48.204;16.202;2023-05-14T06:03:10;9.23;;;8.30;;
62990;SDS011;49084;48.204;16.202;2023-05-14T06:05:36;11.52;;;8.13;;
62990;SDS011;49084;48.204;16.202;2023-05-14T06:08:01;10.70;;;8.68;;
62990;SDS011;49084;48.204;16.202;2023-05-14T06:10:27;9.55;;;7.70;;
62990;SDS011;49084;48.204;16.202;2023-05-14T06:12:53;8.80;;;7.85;;
62990;SDS011;49084;48.204;16.202;2023-05-14T06:15:18;9.25;;;7.88;;
62990;SDS011;49084;48.204;16.202;2023-05-14T06:17:44;12.68;;;9.07;;
62990;SDS011;49084;48.204;16.202;2023-05-14T06:20:10;9.30;;;7.22;;
62990;SDS011;49084;48.204;16.202;2023-05-14T06:22:36;12.13;;;8.27;;
62990;SDS011;49084;48.204;16.202;2023-05-14T06:25:02;8.70;;;7.80;;
62990;SDS011;49084;48.204;16.202;2023-05-14T06:27:28;11.07;;;8.00;;
62990;SDS011;49084;48.204;16.202;2023-05-14T06:29:54;13.27;;;7.95;;
62990;SDS011;49084;48.204;16.202;2023-05-14T06:32:19;10.00;;;7.25;;
62990;SDS011;49084;48.204;16.202;2023-05-14T06:34:45;8.55;;;7.18;;
62990;SDS011;49084;48.204;16.202;2023-05-14T06:37:11;8.77;;;6.95;;
62990;SDS011;49084;48.204;16.202;2023-05-14T06:39:37;9.35;;;7.55;;
62990;SDS011;49084;48.204;16.202;2023-05-14T06:42:03;11.27;;;7.60;;
62990;SDS011;49084;48.204;16.202;2023-05-14T06:44:29;11.00;;;8.10;;
62990;SDS011;49084;48.204;16.202;2023-05-14T06:46:55;9.98;;;7.15;;
62990;SDS011;49084;48.204;16.202;2023-05-14T06:49:21;9.20;;;6.85;;
62990;SDS011;49084;48.204;16.202;2023-05-14T06:51:46;8.52;;;7.13;;
62990;SDS011;49084;48.204;16.202;2023-05-14T06:54:12;10.15;;;7.70;;
62990;SDS011;49084;48.204;16.202;2023-05-14T06:56:38;10.95;;;7.30;;
62990;SDS011;49084;48.204;16.202;2023-05-14T06:59:04;10.50;;;7.38;;
62990;SDS011;49084;48.204;16.202;2023-05-14T07:01:29;10.90;;;8.40;;
62990;SDS011;49084;48.204;16.202;2023-05-14T07:03:55;14.25;;;7.80;;
62990;SDS011;49084;48.204;16.202;2023-05-14T07:06:21;10.23;;;7.68;;
62990;SDS011;49084;48.204;16.202;2023-05-14T07:08:47;8.65;;;7.63;;
62990;SDS011;49084;48.204;16.202;2023-05-14T07:11:13;11.23;;;8.27;;
62990;SDS011;49084;48.204;16.202;2023-05-14T07:13:39;14.48;;;7.97;;
62990;SDS011;49084;48.204;16.202;2023-05-14T07:16:05;11.65;;;9.13;;
62990;SDS011;49084;48.204;16.202;2023-05-14T07:18:33;10.05;;;7.55;;
62990;SDS011;49084;48.204;16.202;2023-05-14T07:20:59;10.85;;;8.60;;
62990;SDS011;49084;48.204;16.202;2023-05-14T07:23:24;10.77;;;8.38;;
62990;SDS011;49084;48.204;16.202;2023-05-14T07:25:50;19.15;;;11.20;;
62990;SDS011;49084;48.204;16.202;2023-05-14T07:28:16;11.50;;;9.27;;
62990;SDS011;49084;48.204;16.202;2023-05-14T07:30:41;14.13;;;10.18;;
62990;SDS011;49084;48.204;16.202;2023-05-14T07:33:07;11.20;;;9.00;;
62990;SDS011;49084;48.204;16.202;2023-05-14T07:35:33;12.50;;;8.80;;
62990;SDS011;49084;48.204;16.202;2023-05-14T07:37:58;14.15;;;10.10;;
62990;SDS011;49084;48.204;16.202;2023-05-14T07:40:24;10.90;;;8.85;;
62990;SDS011;49084;48.204;16.202;2023-05-14T07:42:50;12.70;;;9.52;;
62990;SDS011;49084;48.204;16.202;2023-05-14T07:45:16;19.08;;;10.77;;
62990;SDS011;49084;48.204;16.202;2023-05-14T07:47:41;12.98;;;10.00;;
62990;SDS011;49084;48.204;16.202;2023-05-14T07:50:07;13.00;;;9.13;;
62990;SDS011;49084;48.204;16.202;2023-05-14T07:52:33;14.55;;;10.43;;
62990;SDS011;49084;48.204;16.202;2023-05-14T07:55:01;14.52;;;10.43;;
62990;SDS011;49084;48.204;16.202;2023-05-14T07:57:27;15.88;;;11.30;;
62990;SDS011;49084;48.204;16.202;2023-05-14T08:05:05;9.75;;;8.05;;
62990;SDS011;49084;48.204;16.202;2023-05-14T08:07:31;10.82;;;8.90;;
62990;SDS011;49084;48.204;16.202;2023-05-14T08:09:57;11.43;;;8.50;;
62990;SDS011;49084;48.204;16.202;2023-05-14T08:12:23;9.25;;;8.15;;
62990;SDS011;49084;48.204;16.202;2023-05-14T08:14:49;10.43;;;8.20;;
62990;SDS011;49084;48.204;16.202;2023-05-14T08:17:15;11.13;;;8.02;;
62990;SDS011;49084;48.204;16.202;2023-05-14T08:19:41;9.77;;;7.72;;
62990;SDS011;49084;48.204;16.202;2023-05-14T08:22:07;10.52;;;8.30;;
62990;SDS011;49084;48.204;16.202;2023-05-14T08:24:33;12.98;;;8.15;;
62990;SDS011;49084;48.204;16.202;2023-05-14T08:26:58;11.93;;;8.48;;
62990;SDS011;49084;48.204;16.202;2023-05-14T08:29:24;13.77;;;8.40;;
62990;SDS011;49084;48.204;16.202;2023-05-14T08:31:50;9.77;;;8.38;;
62990;SDS011;49084;48.204;16.202;2023-05-14T08:34:16;10.18;;;8.32;;
62990;SDS011;49084;48.204;16.202;2023-05-14T08:36:41;12.38;;;8.82;;
62990;SDS011;49084;48.204;16.202;2023-05-14T08:39:07;12.68;;;9.70;;
62990;SDS011;49084;48.204;16.202;2023-05-14T08:41:33;11.75;;;8.77;;
62990;SDS011;49084;48.204;16.202;2023-05-14T08:44:05;10.70;;;9.05;;
62990;SDS011;49084;48.204;16.202;2023-05-14T08:46:36;14.85;;;9.52;;
62990;SDS011;49084;48.204;16.202;2023-05-14T08:52:07;13.05;;;8.77;;
62990;SDS011;49084;48.204;16.202;2023-05-14T08:54:34;13.18;;;8.27;;
62990;SDS011;49084;48.204;16.202;2023-05-14T08:57:01;11.45;;;8.70;;
62990;SDS011;49084;48.204;16.202;2023-05-14T08:59:28;11.35;;;8.63;;
62990;SDS011;49084;48.204;16.202;2023-05-14T09:01:53;10.73;;;8.13;;
62990;SDS011;49084;48.204;16.202;2023-05-14T09:04:21;10.60;;;8.73;;
62990;SDS011;49084;48.204;16.202;2023-05-14T09:06:49;12.82;;;8.57;;
62990;SDS011;49084;48.204;16.202;2023-05-14T09:09:16;10.90;;;8.55;;
62990;SDS011;49084;48.204;16.202;2023-05-14T09:11:44;12.32;;;9.10;;
62990;SDS011;49084;48.204;16.202;2023-05-14T09:14:10;11.50;;;8.38;;
62990;SDS011;49084;48.204;16.202;2023-05-14T09:16:36;10.68;;;8.85;;
62990;SDS011;49084;48.204;16.202;2023-05-14T09:19:03;10.45;;;9.35;;
62990;SDS011;49084;48.204;16.202;2023-05-14T09:21:30;11.02;;;9.18;;
62990;SDS011;49084;48.204;16.202;2023-05-14T09:23:57;11.70;;;8.85;;
62990;SDS011;49084;48.204;16.202;2023-05-14T09:26:23;12.88;;;9.55;;
62990;SDS011;49084;48.204;16.202;2023-05-14T09:28:53;14.45;;;9.38;;
62990;SDS011;49084;48.204;16.202;2023-05-14T09:31:25;8.82;;;7.60;;
62990;SDS011;49084;48.204;16.202;2023-05-14T09:33:55;11.80;;;9.13;;
62990;SDS011;49084;48.204;16.202;2023-05-14T09:36:21;9.27;;;8.27;;
62990;SDS011;49084;48.204;16.202;2023-05-14T09:38:49;9.00;;;7.63;;
62990;SDS011;49084;48.204;16.202;2023-05-14T09:41:14;10.68;;;8.48;;
62990;SDS011;49084;48.204;16.202;2023-05-14T09:43:40;9.18;;;7.78;;
62990;SDS011;49084;48.204;16.202;2023-05-14T09:46:06;9.80;;;8.18;;
62990;SDS011;49084;48.204;16.202;2023-05-14T09:48:32;11.25;;;8.55;;
62990;SDS011;49084;48.204;16.202;2023-05-14T09:50:58;12.30;;;9.20;;
62990;SDS011;49084;48.204;16.202;2023-05-14T09:53:23;10.10;;;9.02;;
62990;SDS011;49084;48.204;16.202;2023-05-14T09:55:49;9.27;;;8.05;;
62990;SDS011;49084;48.204;16.202;2023-05-14T09:58:14;12.70;;;8.15;;
62990;SDS011;49084;48.204;16.202;2023-05-14T10:00:44;9.75;;;8.75;;
62990;SDS011;49084;48.204;16.202;2023-05-14T10:03:12;11.15;;;7.82;;
62990;SDS011;49084;48.204;16.202;2023-05-14T10:05:41;9.35;;;7.20;;
62990;SDS011;49084;48.204;16.202;2023-05-14T10:08:08;9.65;;;8.10;;
62990;SDS011;49084;48.204;16.202;2023-05-14T10:10:40;9.65;;;8.43;;
62990;SDS011;49084;48.204;16.202;2023-05-14T10:13:09;12.65;;;9.65;;
62990;SDS011;49084;48.204;16.202;2023-05-14T10:15:39;16.52;;;9.77;;
62990;SDS011;49084;48.204;16.202;2023-05-14T10:18:10;12.32;;;9.65;;
62990;SDS011;49084;48.204;16.202;2023-05-14T10:20:37;11.23;;;8.68;;
62990;SDS011;49084;48.204;16.202;2023-05-14T10:23:05;10.73;;;9.50;;
62990;SDS011;49084;48.204;16.202;2023-05-14T10:25:31;11.43;;;9.40;;
62990;SDS011;49084;48.204;16.202;2023-05-14T10:27:59;12.48;;;8.82;;
62990;SDS011;49084;48.204;16.202;2023-05-14T10:30:25;10.95;;;9.80;;
62990;SDS011;49084;48.204;16.202;2023-05-14T10:38:27;10.55;;;9.00;;
62990;SDS011;49084;48.204;16.202;2023-05-14T10:41:04;10.07;;;8.57;;
62990;SDS011;49084;48.204;16.202;2023-05-14T10:43:55;14.50;;;9.85;;
62990;SDS011;49084;48.204;16.202;2023-05-14T10:46:21;10.98;;;8.43;;
62990;SDS011;49084;48.204;16.202;2023-05-14T10:48:47;10.10;;;8.00;;
62990;SDS011;49084;48.204;16.202;2023-05-14T10:51:22;7.30;;;6.65;;
62990;SDS011;49084;48.204;16.202;2023-05-14T10:57:10;11.82;;;8.05;;
62990;SDS011;49084;48.204;16.202;2023-05-14T11:10:09;11.85;;;8.32;;
62990;SDS011;49084;48.204;16.202;2023-05-14T11:12:37;11.68;;;9.32;;
62990;SDS011;49084;48.204;16.202;2023-05-14T11:15:15;10.87;;;9.40;;
62990;SDS011;49084;48.204;16.202;2023-05-14T11:20:58;12.68;;;10.43;;
62990;SDS011;49084;48.204;16.202;2023-05-14T11:23:24;12.07;;;10.27;;
62990;SDS011;49084;48.204;16.202;2023-05-14T11:25:51;16.17;;;11.43;;
62990;SDS011;49084;48.204;16.202;2023-05-14T11:28:19;12.63;;;10.88;;
62990;SDS011;49084;48.204;16.202;2023-05-14T11:30:46;14.00;;;11.50;;
62990;SDS011;49084;48.204;16.202;2023-05-14T11:33:12;13.90;;;10.98;;
62990;SDS011;49084;48.204;16.202;2023-05-14T11:35:38;17.27;;;11.30;;
62990;SDS011;49084;48.204;16.202;2023-05-14T11:38:04;11.20;;;9.95;;
62990;SDS011;49084;48.204;16.202;2023-05-14T11:40:29;15.85;;;12.02;;
62990;SDS011;49084;48.204;16.202;2023-05-14T11:42:55;14.55;;;12.38;;
62990;SDS011;49084;48.204;16.202;2023-05-14T11:45:24;14.18;;;12.23;;
62990;SDS011;49084;48.204;16.202;2023-05-14T11:47:51;14.85;;;11.55;;
62990;SDS011;49084;48.204;16.202;2023-05-14T11:50:17;13.32;;;11.93;;
62990;SDS011;49084;48.204;16.202;2023-05-14T11:52:43;15.60;;;11.07;;
62990;SDS011;49084;48.204;16.202;2023-05-14T11:55:09;13.77;;;11.07;;
62990;SDS011;49084;48.204;16.202;2023-05-14T11:57:36;12.75;;;10.93;;
62990;SDS011;49084;48.204;16.202;2023-05-14T12:00:02;12.68;;;11.13;;
62990;SDS011;49084;48.204;16.202;2023-05-14T12:02:30;17.05;;;13.27;;
62990;SDS011;49084;48.204;16.202;2023-05-14T12:04:55;12.93;;;11.52;;
62990;SDS011;49084;48.204;16.202;2023-05-14T12:07:21;17.67;;;12.75;;
62990;SDS011;49084;48.204;16.202;2023-05-14T12:09:47;16.48;;;13.32;;
62990;SDS011;49084;48.204;16.202;2023-05-14T12:12:14;17.35;;;13.15;;
62990;SDS011;49084;48.204;16.202;2023-05-14T12:14:49;16.48;;;12.57;;
62990;SDS011;49084;48.204;16.202;2023-05-14T12:19:46;15.43;;;11.93;;
62990;SDS011;49084;48.204;16.202;2023-05-14T12:22:14;20.50;;;13.07;;
62990;SDS011;49084;48.204;16.202;2023-05-14T12:24:42;14.30;;;12.25;;
62990;SDS011;49084;48.204;16.202;2023-05-14T12:27:16;20.08;;;12.43;;
62990;SDS011;49084;48.204;16.202;2023-05-14T12:29:46;17.20;;;12.50;;
62990;SDS011;49084;48.204;16.202;2023-05-14T12:32:11;14.20;;;12.15;;
62990;SDS011;49084;48.204;16.202;2023-05-14T12:34:38;16.48;;;13.65;;
62990;SDS011;49084;48.204;16.202;2023-05-14T12:37:04;15.13;;;12.05;;
62990;SDS011;49084;48.204;16.202;2023-05-14T12:39:31;18.17;;;13.70;;
62990;SDS011;49084;48.204;16.202;2023-05-14T12:41:58;15.70;;;12.88;;
62990;SDS011;49084;48.204;16.202;2023-05-14T12:44:23;14.77;;;11.75;;
62990;SDS011;49084;48.204;16.202;2023-05-14T12:46:49;13.90;;;12.20;;
62990;SDS011;49084;48.204;16.202;2023-05-14T12:49:15;14.38;;;12.30;;
62990;SDS011;49084;48.204;16.202;2023-05-14T12:51:41;14.88;;;13.30;;
62990;SDS011;49084;48.204;16.202;2023-05-14T12:54:07;18.98;;;14.63;;
62990;SDS011;49084;48.204;16.202;2023-05-14T12:56:34;17.35;;;13.38;;
62990;SDS011;49084;48.204;16.202;2023-05-14T12:59:02;16.70;;;14.35;;
62990;SDS011;49084;48.204;16.202;2023-05-14T13:01:28;14.68;;;12.77;;
62990;SDS011;49084;48.204;16.202;2023-05-14T13:03:54;19.00;;;13.40;;
62990;SDS011;49084;48.204;16.202;2023-05-14T13:06:20;18.17;;;13.50;;
62990;SDS011;49084;48.204;16.202;2023-05-14T13:08:46;18.88;;;14.45;;
62990;SDS011;49084;48.204;16.202;2023-05-14T13:11:12;16.35;;;12.77;;
62990;SDS011;49084;48.204;16.202;2023-05-14T13:13:37;16.10;;;11.93;;
62990;SDS011;49084;48.204;16.202;2023-05-14T13:16:03;13.15;;;11.23;;
62990;SDS011;49084;48.204;16.202;2023-05-14T13:18:29;12.35;;;10.45;;
62990;SDS011;49084;48.204;16.202;2023-05-14T13:20:54;15.63;;;12.05;;
62990;SDS011;49084;48.204;16.202;2023-05-14T13:23:20;11.48;;;10.05;;
62990;SDS011;49084;48.204;16.202;2023-05-14T13:25:46;12.77;;;11.38;;
62990;SDS011;49084;48.204;16.202;2023-05-14T13:28:11;13.25;;;11.43;;
62990;SDS011;49084;48.204;16.202;2023-05-14T13:30:37;12.10;;;10.38;;
62990;SDS011;49084;48.204;16.202;2023-05-14T13:33:04;12.38;;;10.57;;
62990;SDS011;49084;48.204;16.202;2023-05-14T13:35:30;12.52;;;11.20;;
62990;SDS011;49084;48.204;16.202;2023-05-14T13:37:55;13.00;;;11.65;;
62990;SDS011;49084;48.204;16.202;2023-05-14T13:40:21;15.70;;;11.68;;
62990;SDS011;49084;48.204;16.202;2023-05-14T13:42:47;13.77;;;11.75;;
62990;SDS011;49084;48.204;16.202;2023-05-14T13:45:31;19.13;;;11.52;;
62990;SDS011;49084;48.204;16.202;2023-05-14T13:47:57;13.52;;;11.73;;
62990;SDS011;49084;48.204;16.202;2023-05-14T13:50:22;14.77;;;12.25;;
62990;SDS011;49084;48.204;16.202;2023-05-14T13:52:48;15.90;;;12.40;;
62990;SDS011;49084;48.204;16.202;2023-05-14T13:55:13;12.95;;;10.70;;
62990;SDS011;49084;48.204;16.202;2023-05-14T13:57:41;13.73;;;10.77;;
62990;SDS011;49084;48.204;16.202;2023-05-14T14:00:07;16.38;;;11.57;;
62990;SDS011;49084;48.204;16.202;2023-05-14T14:02:33;12.15;;;10.68;;
62990;SDS011;49084;48.204;16.202;2023-05-14T14:04:58;13.27;;;11.18;;
62990;SDS011;49084;48.204;16.202;2023-05-14T14:07:24;11.55;;;10.00;;
62990;SDS011;49084;48.204;16.202;2023-05-14T14:09:50;14.18;;;10.65;;
62990;SDS011;49084;48.204;16.202;2023-05-14T14:12:15;12.90;;;10.65;;
62990;SDS011;49084;48.204;16.202;2023-05-14T14:14:41;11.07;;;9.80;;
62990;SDS011;49084;48.204;16.202;2023-05-14T14:17:07;12.80;;;9.60;;
62990;SDS011;49084;48.204;16.202;2023-05-14T14:19:33;12.45;;;9.27;;
62990;SDS011;49084;48.204;16.202;2023-05-14T14:21:58;12.73;;;10.52;;
62990;SDS011;49084;48.204;16.202;2023-05-14T14:24:24;11.25;;;9.95;;
62990;SDS011;49084;48.204;16.202;2023-05-14T14:26:49;15.27;;;11.05;;
62990;SDS011;49084;48.204;16.202;2023-05-14T14:29:15;11.80;;;9.50;;
62990;SDS011;49084;48.204;16.202;2023-05-14T14:31:41;11.43;;;9.98;;
62990;SDS011;49084;48.204;16.202;2023-05-14T14:34:07;13.57;;;9.60;;
62990;SDS011;49084;48.204;16.202;2023-05-14T14:36:33;11.40;;;9.60;;
62990;SDS011;49084;48.204;16.202;2023-05-14T14:38:58;12.35;;;9.82;;
62990;SDS011;49084;48.204;16.202;2023-05-14T14:41:24;11.60;;;10.10;;
62990;SDS011;49084;48.204;16.202;2023-05-14T14:43:50;17.52;;;9.80;;
62990;SDS011;49084;48.204;16.202;2023-05-14T14:46:16;12.13;;;10.55;;
62990;SDS011;49084;48.204;16.202;2023-05-14T14:48:42;11.05;;;9.70;;